Time;durP1;ratioP1;P1;durP2;ratioP2;P2;SDS_P1;SDS_P2;PMS_P1;PMS_P2;Temp;Humidity;BMP_temperature;BMP_pressure;BME280_temperature;BME280_humidity;BME280_pressure;Samples;Min_cycle;Max_cycle;Signal;HPM_P1;HPM_P2
2024/01/31 00:06:02;;;;;;;4.15;2.30;;;0.40;96.40;;;;;;20660475;28;20080;-43
2024/01/31 00:16:08;;;;;;;4.03;2.15;;;0.20;97.00;;;;;;20678842;28;20521;-45
2024/01/31 00:26:10;;;;;;;4.70;2.22;;;0.20;97.10;;;;;;20678263;28;20671;-45
2024/01/31 00:36:12;;;;;;;4.72;2.38;;;0.30;96.80;;;;;;20676089;28;20185;-44
2024/01/31 00:46:14;;;;;;;5.10;2.42;;;0.60;96.90;;;;;;20659380;28;20153;-45
2024/01/31 00:56:16;;;;;;;4.63;2.35;;;0.90;96.50;;;;;;20675510;28;20154;-44
2024/01/31 01:06:17;;;;;;;5.28;2.83;;;0.90;96.50;;;;;;20659700;28;20061;-44
2024/01/31 01:16:19;;;;;;;4.63;2.30;;;0.90;96.40;;;;;;20674631;28;20498;-43
2024/01/31 01:26:21;;;;;;;4.50;2.20;;;1.00;96.50;;;;;;20672479;28;20072;-43
2024/01/31 01:36:23;;;;;;;5.75;2.90;;;1.00;96.40;;;;;;20691430;28;20803;-43
2024/01/31 01:46:25;;;;;;;4.78;2.53;;;1.10;96.30;;;;;;20692201;28;20715;-43
2024/01/31 01:56:27;;;;;;;5.80;2.70;;;1.10;96.20;;;;;;20690836;28;20061;-44
2024/01/31 02:06:29;;;;;;;5.53;2.67;;;1.20;95.80;;;;;;20689412;28;20185;-43
2024/01/31 02:16:31;;;;;;;4.95;2.60;;;0.80;96.20;;;;;;20689837;28;20052;-43
2024/01/31 02:26:37;;;;;;;6.50;2.53;;;0.50;96.50;;;;;;20688050;28;20037;-44
2024/01/31 02:36:38;;;;;;;5.57;2.88;;;0.30;96.60;;;;;;20688041;28;20032;-44
2024/01/31 02:46:40;;;;;;;4.72;1.98;;;0.20;96.40;;;;;;20685195;28;20045;-43
2024/01/31 02:56:42;;;;;;;5.82;2.35;;;0.30;96.00;;;;;;20684499;28;20060;-45
2024/01/31 03:06:44;;;;;;;4.93;2.10;;;0.20;96.00;;;;;;20682254;28;20138;-42
2024/01/31 03:16:46;;;;;;;2.88;1.52;;;-0.10;96.30;;;;;;20679408;28;20036;-44
2024/01/31 03:26:48;;;;;;;4.28;1.55;;;0.00;96.30;;;;;;20680724;28;21153;-45
2024/01/31 03:36:50;;;;;;;3.30;1.35;;;-0.10;96.40;;;;;;20680092;28;20041;-44
2024/01/31 03:46:52;;;;;;;2.35;1.10;;;0.00;95.90;;;;;;20682476;28;20064;-44
2024/01/31 03:56:56;;;;;;;2.53;1.38;;;0.20;95.40;;;;;;20679853;28;20110;-45
2024/01/31 04:06:58;;;;;;;1.65;1.00;;;0.20;95.50;;;;;;20679593;28;20114;-43
2024/01/31 04:17:00;;;;;;;4.22;1.63;;;-0.10;95.80;;;;;;20677546;28;20150;-44
2024/01/31 04:27:01;;;;;;;3.28;1.55;;;0.00;95.70;;;;;;20679411;28;20509;-45
2024/01/31 04:37:06;;;;;;;2.33;1.27;;;0.00;95.90;;;;;;20677192;28;20033;-43
2024/01/31 04:47:08;;;;;;;2.35;0.80;;;-0.10;96.00;;;;;;20675482;28;20166;-44
2024/01/31 04:57:10;;;;;;;3.03;1.50;;;0.20;95.40;;;;;;20674210;28;20660;-44
2024/01/31 05:07:12;;;;;;;2.80;1.30;;;0.50;95.10;;;;;;20672940;28;20032;-44
2024/01/31 05:17:15;;;;;;;2.83;1.30;;;0.60;94.50;;;;;;20675150;28;20095;-44
2024/01/31 05:27:20;;;;;;;2.10;1.10;;;0.60;94.20;;;;;;20673461;28;20064;-43
2024/01/31 05:37:22;;;;;;;2.28;1.13;;;0.70;94.80;;;;;;20673158;28;21230;-43
2024/01/31 05:47:23;;;;;;;2.33;1.15;;;0.40;94.80;;;;;;20671983;28;20069;-43
2024/01/31 05:57:25;;;;;;;1.58;0.73;;;0.30;95.30;;;;;;20670812;28;20118;-44
2024/01/31 06:07:27;;;;;;;1.73;0.80;;;0.40;94.80;;;;;;20671642;28;20782;-44
2024/01/31 06:17:31;;;;;;;1.23;0.77;;;0.50;94.80;;;;;;20678183;28;20152;-43
2024/01/31 06:27:37;;;;;;;2.42;0.63;;;0.40;94.80;;;;;;20683739;28;21266;-44
2024/01/31 06:37:39;;;;;;;2.47;1.40;;;0.40;94.70;;;;;;20681552;28;21593;-43
2024/01/31 06:47:43;;;;;;;2.72;1.20;;;0.50;94.90;;;;;;20681824;28;20216;-45
2024/01/31 06:57:45;;;;;;;2.28;0.85;;;0.50;94.30;;;;;;20680050;28;20102;-44
2024/01/31 07:07:48;;;;;;;1.27;0.60;;;0.60;94.60;;;;;;20676223;28;21157;-44
2024/01/31 07:17:50;;;;;;;2.08;0.63;;;0.70;94.70;;;;;;20678905;28;20604;-44
2024/01/31 07:27:52;;;;;;;2.85;0.65;;;1.20;93.60;;;;;;20674732;28;20094;-43
2024/01/31 07:37:54;;;;;;;2.78;1.38;;;1.80;93.00;;;;;;20679197;28;20041;-44
2024/01/31 07:47:56;;;;;;;1.10;0.70;;;1.90;92.50;;;;;;20676562;28;21181;-46
2024/01/31 07:57:59;;;;;;;2.60;0.93;;;2.20;93.30;;;;;;20656378;28;20596;-45
2024/01/31 08:08:01;;;;;;;2.40;1.08;;;2.80;92.10;;;;;;20672419;28;20656;-46
2024/01/31 08:18:03;;;;;;;3.78;1.63;;;3.80;91.30;;;;;;20674770;28;20057;-44
2024/01/31 08:28:05;;;;;;;2.88;1.60;;;5.00;89.30;;;;;;20674395;28;20146;-44
2024/01/31 08:38:07;;;;;;;4.97;1.92;;;6.30;86.70;;;;;;20498431;28;20168;-46
2024/01/31 08:48:08;;;;;;;3.03;1.40;;;7.40;81.70;;;;;;20498040;28;20143;-46
2024/01/31 08:58:10;;;;;;;1.98;0.90;;;8.10;80.30;;;;;;20494087;28;20212;-48
2024/01/31 09:08:12;;;;;;;1.50;0.73;;;8.50;78.10;;;;;;20631140;28;20084;-45
2024/01/31 09:18:14;;;;;;;1.73;0.88;;;8.70;78.60;;;;;;20611443;28;20824;-48
2024/01/31 09:28:16;;;;;;;2.80;0.98;;;9.10;77.70;;;;;;20591624;28;20186;-45
2024/01/31 09:38:18;;;;;;;1.50;0.82;;;8.70;77.50;;;;;;20607037;28;20086;-45
2024/01/31 09:48:19;;;;;;;2.72;1.10;;;8.90;77.30;;;;;;20605169;28;21159;-45
2024/01/31 09:58:22;;;;;;;1.60;1.00;;;9.60;74.50;;;;;;20621012;28;20033;-45
2024/01/31 10:08:29;;;;;;;1.70;0.90;;;10.60;74.60;;;;;;20622064;28;20041;-47
2024/01/31 10:18:31;;;;;;;4.05;1.10;;;11.20;73.20;;;;;;20619881;28;20048;-45
2024/01/31 10:28:34;;;;;;;1.75;1.08;;;11.50;72.20;;;;;;20622357;28;20075;-45
2024/01/31 10:38:39;;;;;;;1.67;0.88;;;11.50;73.00;;;;;;20620709;28;20037;-45
2024/01/31 10:48:40;;;;;;;3.17;1.20;;;11.50;72.50;;;;;;20617371;28;20084;-45
2024/01/31 10:58:42;;;;;;;1.80;1.15;;;11.40;71.40;;;;;;20616794;28;20040;-47
2024/01/31 11:08:44;;;;;;;2.72;1.40;;;11.60;72.50;;;;;;20617068;28;20234;-48
2024/01/31 11:18:51;;;;;;;2.47;1.38;;;11.70;71.30;;;;;;20616682;28;20736;-45
2024/01/31 11:28:55;;;;;;;4.57;1.50;;;11.70;70.70;;;;;;20614413;28;20087;-46
2024/01/31 11:38:57;;;;;;;3.72;1.60;;;12.10;70.60;;;;;;20614566;28;20169;-46
2024/01/31 11:48:59;;;;;;;2.67;2.00;;;12.60;72.20;;;;;;20612923;28;20036;-47
2024/01/31 11:59:03;;;;;;;5.30;2.35;;;12.20;71.50;;;;;;20614408;28;20036;-45
2024/01/31 12:09:05;;;;;;;4.20;2.60;;;11.60;72.30;;;;;;20624893;28;20124;-45
2024/01/31 12:19:10;;;;;;;4.90;2.28;;;11.70;73.40;;;;;;20673047;28;20080;-46
2024/01/31 12:29:12;;;;;;;3.97;2.55;;;11.80;73.20;;;;;;20675842;28;20072;-48
2024/01/31 12:39:19;;;;;;;3.45;2.00;;;11.90;73.30;;;;;;20651971;28;20095;-45
2024/01/31 12:49:22;;;;;;;3.45;2.30;;;11.50;73.50;;;;;;20673349;28;20127;-48
2024/01/31 12:59:24;;;;;;;5.57;2.53;;;11.00;75.00;;;;;;20671909;28;20072;-48
2024/01/31 13:09:25;;;;;;;3.83;2.67;;;11.40;74.40;;;;;;20672525;28;20040;-45
2024/01/31 13:19:27;;;;;;;4.93;3.08;;;11.20;74.70;;;;;;20671376;28;20103;-45
2024/01/31 13:29:29;;;;;;;4.47;2.83;;;10.90;74.90;;;;;;20680118;28;20045;-47
2024/01/31 13:39:31;;;;;;;4.38;2.80;;;10.70;75.30;;;;;;20669053;28;20077;-44
2024/01/31 13:49:33;;;;;;;4.82;2.55;;;10.80;76.00;;;;;;20686549;28;20037;-46
2024/01/31 13:59:35;;;;;;;4.50;3.20;;;10.50;76.90;;;;;;20686216;28;20146;-47
2024/01/31 14:09:37;;;;;;;4.88;2.80;;;10.00;77.40;;;;;;20690019;28;20044;-46
2024/01/31 14:19:38;;;;;;;5.85;3.10;;;9.40;78.40;;;;;;20683507;28;20079;-44
2024/01/31 14:29:40;;;;;;;3.58;2.72;;;9.10;78.90;;;;;;20681849;28;20557;-45
2024/01/31 14:39:43;;;;;;;4.25;2.90;;;9.00;80.60;;;;;;20681990;28;20068;-44
2024/01/31 14:49:45;;;;;;;4.28;3.05;;;8.90;81.10;;;;;;20682105;28;20037;-45
2024/01/31 14:59:47;;;;;;;4.18;2.55;;;8.70;77.80;;;;;;20680381;28;21593;-44
2024/01/31 15:09:48;;;;;;;4.03;2.67;;;8.70;80.60;;;;;;20676360;28;20067;-44
2024/01/31 15:19:50;;;;;;;4.40;2.25;;;8.60;82.00;;;;;;20677036;28;20101;-45
2024/01/31 15:29:52;;;;;;;6.10;2.63;;;8.30;83.70;;;;;;20678682;28;20182;-43
2024/01/31 15:39:54;;;;;;;4.75;2.50;;;7.80;87.40;;;;;;20660142;28;20041;-45
2024/01/31 15:49:56;;;;;;;4.35;2.42;;;7.20;88.20;;;;;;20675572;28;20033;-44
2024/01/31 15:59:57;;;;;;;2.83;1.48;;;6.50;90.40;;;;;;20674866;28;20175;-43
2024/01/31 16:09:59;;;;;;;4.00;1.10;;;6.00;90.60;;;;;;20656298;28;20130;-43
2024/01/31 16:20:02;;;;;;;2.28;0.98;;;5.50;91.50;;;;;;20656182;28;20081;-47
2024/01/31 16:30:04;;;;;;;2.92;0.50;;;5.10;91.20;;;;;;20674075;28;20879;-45
2024/01/31 16:40:07;;;;;;;1.48;0.60;;;4.90;91.50;;;;;;20675585;28;20072;-43
2024/01/31 16:50:12;;;;;;;1.67;0.50;;;4.70;91.60;;;;;;20672967;28;20536;-43
2024/01/31 17:00:15;;;;;;;1.75;0.80;;;4.50;91.30;;;;;;20674212;28;20080;-45
2024/01/31 17:10:21;;;;;;;2.80;0.30;;;4.30;91.80;;;;;;20676402;28;20084;-44
2024/01/31 17:20:23;;;;;;;0.52;0.28;;;3.90;91.80;;;;;;20674111;28;20053;-43
2024/01/31 17:30:25;;;;;;;1.00;0.40;;;3.90;92.00;;;;;;20672287;28;20663;-47
2024/01/31 17:40:27;;;;;;;1.13;0.30;;;3.90;91.30;;;;;;20673358;28;20077;-44
2024/01/31 17:50:29;;;;;;;1.55;0.28;;;4.00;90.60;;;;;;20673524;28;20061;-44
2024/01/31 18:00:31;;;;;;;0.50;0.20;;;3.70;90.30;;;;;;20669628;28;20060;-45
2024/01/31 18:10:33;;;;;;;1.73;0.20;;;3.40;91.00;;;;;;20674640;28;20103;-44
2024/01/31 18:20:38;;;;;;;0.50;0.20;;;3.20;91.10;;;;;;20685326;28;20108;-44
2024/01/31 18:30:41;;;;;;;0.40;0.20;;;2.90;91.60;;;;;;20687510;28;20150;-44
2024/01/31 18:40:46;;;;;;;2.22;0.20;;;2.90;91.30;;;;;;20682548;28;20080;-44
2024/01/31 18:50:48;;;;;;;1.00;0.22;;;2.90;90.70;;;;;;20683214;28;21082;-44
2024/01/31 19:00:50;;;;;;;2.15;0.20;;;3.00;90.90;;;;;;20681962;28;20158;-44
2024/01/31 19:10:52;;;;;;;0.85;0.20;;;2.90;90.20;;;;;;20668559;28;20499;-44
2024/01/31 19:20:53;;;;;;;1.75;0.10;;;3.00;90.60;;;;;;20679262;28;20081;-43
2024/01/31 19:30:56;;;;;;;0.50;0.17;;;2.80;90.80;;;;;;20680078;28;20543;-45
2024/01/31 19:40:58;;;;;;;0.57;0.20;;;2.80;90.70;;;;;;20679536;28;20205;-44
2024/01/31 19:51:00;;;;;;;0.20;0.10;;;3.20;90.40;;;;;;20681042;28;20452;-43
2024/01/31 20:01:02;;;;;;;0.52;0.10;;;3.00;90.10;;;;;;20679048;28;21178;-44
2024/01/31 20:11:12;;;;;;;0.50;0.10;;;2.80;90.60;;;;;;20673108;28;20127;-45
2024/01/31 20:21:14;;;;;;;0.30;0.13;;;2.60;91.30;;;;;;20671717;28;20744;-44
2024/01/31 20:31:16;;;;;;;0.52;0.10;;;2.60;91.10;;;;;;20677519;28;20175;-44
2024/01/31 20:41:22;;;;;;;0.60;0.10;;;2.70;90.80;;;;;;20677595;28;20040;-44
2024/01/31 20:51:24;;;;;;;0.40;0.10;;;2.80;89.80;;;;;;20677215;28;20472;-45
2024/01/31 21:01:27;;;;;;;0.30;0.20;;;2.90;90.00;;;;;;20673192;28;20069;-44
2024/01/31 21:11:29;;;;;;;0.30;0.10;;;2.70;89.80;;;;;;20674215;28;20129;-45
2024/01/31 21:21:30;;;;;;;1.67;0.20;;;2.50;90.40;;;;;;20672552;28;20084;-43
2024/01/31 21:31:35;;;;;;;0.40;0.10;;;2.60;90.10;;;;;;20674065;28;20126;-44
2024/01/31 21:41:37;;;;;;;0.50;0.20;;;2.50;90.30;;;;;;20671145;28;20057;-44
2024/01/31 21:51:42;;;;;;;0.68;0.20;;;2.60;90.20;;;;;;20684902;28;21107;-44
2024/01/31 22:01:44;;;;;;;1.60;0.40;;;2.60;89.10;;;;;;20689428;28;21674;-43
2024/01/31 22:11:45;;;;;;;0.57;0.20;;;2.50;89.40;;;;;;20687277;28;20139;-44
2024/01/31 22:21:47;;;;;;;2.53;0.17;;;2.20;90.20;;;;;;20683893;28;20557;-43
2024/01/31 22:31:49;;;;;;;1.17;0.20;;;2.30;90.60;;;;;;20685891;28;20060;-44
2024/01/31 22:41:51;;;;;;;0.68;0.20;;;2.20;90.60;;;;;;20686881;28;21702;-45
2024/01/31 22:51:52;;;;;;;0.25;0.15;;;2.10;90.80;;;;;;20686063;28;20098;-44
2024/01/31 23:01:55;;;;;;;0.57;0.10;;;2.00;90.70;;;;;;20682357;28;20052;-43
2024/01/31 23:11:57;;;;;;;0.35;0.20;;;2.60;89.20;;;;;;20684249;28;20060;-46
2024/01/31 23:21:58;;;;;;;0.60;0.20;;;2.90;88.80;;;;;;20666623;28;20085;-45
2024/01/31 23:32:01;;;;;;;1.13;0.20;;;3.00;87.40;;;;;;20683231;28;20145;-44
2024/01/31 23:42:03;;;;;;;0.60;0.10;;;2.50;89.20;;;;;;20681946;28;20672;-44
2024/01/31 23:52:05;;;;;;;0.30;0.10;;;2.00;90.60;;;;;;20683489;28;20661;-44
